sensor_id;sensor_type;location;lat;lon;timestamp;pressure;altitude;pressure_sealevel;temperature;humidity
76352;BME280;65179;47.786;19.138;2023-04-06T00:00:48;100526.94;;;2.58;54.20
76352;BME280;65179;47.786;19.138;2023-04-06T00:03:14;100523.59;;;2.56;54.07
76352;BME280;65179;47.786;19.138;2023-04-06T00:05:39;100521.94;;;2.71;53.80
76352;BME280;65179;47.786;19.138;2023-04-06T00:08:05;100513.06;;;2.87;53.00
76352;BME280;65179;47.786;19.138;2023-04-06T00:10:31;100511.72;;;2.83;52.78
76352;BME280;65179;47.786;19.138;2023-04-06T00:12:57;100503.84;;;2.89;53.46
76352;BME280;65179;47.786;19.138;2023-04-06T00:15:23;100508.56;;;2.87;53.80
76352;BME280;65179;47.786;19.138;2023-04-06T00:17:48;100506.19;;;2.84;52.71
76352;BME280;65179;47.786;19.138;2023-04-06T00:20:14;100499.34;;;2.58;53.23
76352;BME280;65179;47.786;19.138;2023-04-06T00:22:40;100501.00;;;2.51;53.33
76352;BME280;65179;47.786;19.138;2023-04-06T00:25:06;100509.84;;;2.35;53.57
76352;BME280;65179;47.786;19.138;2023-04-06T00:27:32;100507.09;;;2.11;54.43
76352;BME280;65179;47.786;19.138;2023-04-06T00:29:57;100509.75;;;2.03;55.41
76352;BME280;65179;47.786;19.138;2023-04-06T00:32:22;100499.84;;;1.95;55.91
76352;BME280;65179;47.786;19.138;2023-04-06T00:34:48;100500.31;;;1.91;56.27
76352;BME280;65179;47.786;19.138;2023-04-06T00:37:13;100497.41;;;2.10;55.33
76352;BME280;65179;47.786;19.138;2023-04-06T00:39:39;100496.53;;;2.09;55.76
76352;BME280;65179;47.786;19.138;2023-04-06T00:42:11;100495.53;;;2.10;56.15
76352;BME280;65179;47.786;19.138;2023-04-06T00:44:39;100496.06;;;2.14;56.34
76352;BME280;65179;47.786;19.138;2023-04-06T00:47:05;100498.37;;;2.09;56.33
76352;BME280;65179;47.786;19.138;2023-04-06T00:49:32;100503.56;;;2.10;57.22
76352;BME280;65179;47.786;19.138;2023-04-06T00:51:57;100497.00;;;1.97;57.02
76352;BME280;65179;47.786;19.138;2023-04-06T00:54:22;100505.63;;;2.16;56.85
76352;BME280;65179;47.786;19.138;2023-04-06T00:56:48;100495.50;;;2.02;57.16
76352;BME280;65179;47.786;19.138;2023-04-06T00:59:13;100494.34;;;1.97;57.98
76352;BME280;65179;47.786;19.138;2023-04-06T01:01:39;100499.34;;;2.00;57.83
76352;BME280;65179;47.786;19.138;2023-04-06T01:04:05;100493.03;;;2.09;57.93
76352;BME280;65179;47.786;19.138;2023-04-06T01:06:30;100498.19;;;2.02;57.92
76352;BME280;65179;47.786;19.138;2023-04-06T01:08:55;100494.84;;;2.00;58.14
76352;BME280;65179;47.786;19.138;2023-04-06T01:11:21;100502.97;;;1.83;58.51
76352;BME280;65179;47.786;19.138;2023-04-06T01:13:46;100496.78;;;1.82;59.05
76352;BME280;65179;47.786;19.138;2023-04-06T01:16:12;100495.44;;;1.78;58.82
76352;BME280;65179;47.786;19.138;2023-04-06T01:18:38;100489.94;;;1.88;59.17
76352;BME280;65179;47.786;19.138;2023-04-06T01:21:03;100500.12;;;1.84;59.41
76352;BME280;65179;47.786;19.138;2023-04-06T01:23:29;100495.63;;;1.85;59.13
76352;BME280;65179;47.786;19.138;2023-04-06T01:25:55;100496.62;;;1.84;59.88
76352;BME280;65179;47.786;19.138;2023-04-06T01:28:20;100497.22;;;1.70;60.26
76352;BME280;65179;47.786;19.138;2023-04-06T01:30:46;100494.25;;;1.73;60.44
76352;BME280;65179;47.786;19.138;2023-04-06T01:33:11;100494.91;;;1.75;59.60
76352;BME280;65179;47.786;19.138;2023-04-06T01:35:36;100497.22;;;1.70;58.48
76352;BME280;65179;47.786;19.138;2023-04-06T01:38:02;100497.03;;;1.63;58.22
76352;BME280;65179;47.786;19.138;2023-04-06T01:40:27;100501.22;;;1.66;58.46
76352;BME280;65179;47.786;19.138;2023-04-06T01:42:53;100499.22;;;1.68;58.38
76352;BME280;65179;47.786;19.138;2023-04-06T01:45:18;100494.75;;;1.42;58.26
76352;BME280;65179;47.786;19.138;2023-04-06T01:47:44;100487.63;;;1.51;58.21
76352;BME280;65179;47.786;19.138;2023-04-06T01:50:09;100490.50;;;1.58;58.63
76352;BME280;65179;47.786;19.138;2023-04-06T01:52:35;100493.31;;;1.56;58.58
76352;BME280;65179;47.786;19.138;2023-04-06T01:55:00;100485.44;;;1.54;58.95
76352;BME280;65179;47.786;19.138;2023-04-06T01:57:26;100483.81;;;1.62;59.21
76352;BME280;65179;47.786;19.138;2023-04-06T01:59:51;100470.75;;;1.59;58.75
76352;BME280;65179;47.786;19.138;2023-04-06T02:02:17;100476.25;;;1.57;59.17
76352;BME280;65179;47.786;19.138;2023-04-06T02:04:42;100471.75;;;1.58;58.63
76352;BME280;65179;47.786;19.138;2023-04-06T02:07:08;100474.44;;;1.58;58.78
76352;BME280;65179;47.786;19.138;2023-04-06T02:09:33;100466.41;;;1.58;59.14
76352;BME280;65179;47.786;19.138;2023-04-06T02:11:59;100461.69;;;1.51;59.19
76352;BME280;65179;47.786;19.138;2023-04-06T02:14:26;100458.00;;;1.52;58.66
76352;BME280;65179;47.786;19.138;2023-04-06T02:16:51;100466.12;;;1.35;58.49
76352;BME280;65179;47.786;19.138;2023-04-06T02:19:17;100464.97;;;1.37;58.60
76352;BME280;65179;47.786;19.138;2023-04-06T02:21:42;100460.28;;;1.39;58.38
76352;BME280;65179;47.786;19.138;2023-04-06T02:24:08;100461.25;;;1.30;59.49
76352;BME280;65179;47.786;19.138;2023-04-06T02:26:33;100460.09;;;1.33;58.81
76352;BME280;65179;47.786;19.138;2023-04-06T02:28:58;100449.22;;;1.34;58.95
76352;BME280;65179;47.786;19.138;2023-04-06T02:31:24;100456.06;;;1.29;59.36
76352;BME280;65179;47.786;19.138;2023-04-06T02:33:50;100453.00;;;1.24;59.70
76352;BME280;65179;47.786;19.138;2023-04-06T02:36:15;100450.00;;;1.19;60.07
76352;BME280;65179;47.786;19.138;2023-04-06T02:38:41;100452.12;;;1.15;60.46
76352;BME280;65179;47.786;19.138;2023-04-06T02:41:07;100448.62;;;1.15;60.71
76352;BME280;65179;47.786;19.138;2023-04-06T02:43:32;100449.63;;;1.14;60.25
76352;BME280;65179;47.786;19.138;2023-04-06T02:45:58;100449.66;;;1.22;59.29
76352;BME280;65179;47.786;19.138;2023-04-06T02:48:23;100441.28;;;1.17;59.41
76352;BME280;65179;47.786;19.138;2023-04-06T02:50:49;100444.56;;;1.11;59.00
76352;BME280;65179;47.786;19.138;2023-04-06T02:53:14;100445.88;;;1.07;59.60
76352;BME280;65179;47.786;19.138;2023-04-06T02:55:40;100439.69;;;1.06;59.36
76352;BME280;65179;47.786;19.138;2023-04-06T02:58:05;100440.34;;;1.00;59.15
76352;BME280;65179;47.786;19.138;2023-04-06T03:00:30;100442.03;;;1.01;58.92
76352;BME280;65179;47.786;19.138;2023-04-06T03:02:56;100443.22;;;1.07;58.95
76352;BME280;65179;47.786;19.138;2023-04-06T03:05:21;100442.72;;;1.03;59.27
76352;BME280;65179;47.786;19.138;2023-04-06T03:07:47;100437.19;;;1.05;58.70
76352;BME280;65179;47.786;19.138;2023-04-06T03:10:12;100440.13;;;0.94;59.08
76352;BME280;65179;47.786;19.138;2023-04-06T03:12:37;100437.81;;;0.99;59.40
76352;BME280;65179;47.786;19.138;2023-04-06T03:15:03;100436.94;;;0.90;59.69
76352;BME280;65179;47.786;19.138;2023-04-06T03:17:29;100444.31;;;0.96;58.73
76352;BME280;65179;47.786;19.138;2023-04-06T03:19:55;100433.63;;;0.96;58.55
76352;BME280;65179;47.786;19.138;2023-04-06T03:22:20;100434.09;;;0.92;59.09
76352;BME280;65179;47.786;19.138;2023-04-06T03:24:46;100433.22;;;0.83;59.69
76352;BME280;65179;47.786;19.138;2023-04-06T03:27:11;100432.22;;;0.84;60.15
76352;BME280;65179;47.786;19.138;2023-04-06T03:29:36;100424.00;;;0.77;59.63
76352;BME280;65179;47.786;19.138;2023-04-06T03:32:02;100434.34;;;0.81;59.69
76352;BME280;65179;47.786;19.138;2023-04-06T03:34:27;100432.16;;;0.76;59.88
76352;BME280;65179;47.786;19.138;2023-04-06T03:36:53;100426.59;;;0.69;59.73
76352;BME280;65179;47.786;19.138;2023-04-06T03:39:18;100430.50;;;0.75;59.39
76352;BME280;65179;47.786;19.138;2023-04-06T03:41:44;100441.38;;;0.56;60.13
76352;BME280;65179;47.786;19.138;2023-04-06T03:44:10;100434.56;;;0.61;60.09
76352;BME280;65179;47.786;19.138;2023-04-06T03:46:35;100436.03;;;0.56;59.95
76352;BME280;65179;47.786;19.138;2023-04-06T03:49:01;100434.56;;;0.61;59.91
76352;BME280;65179;47.786;19.138;2023-04-06T03:51:27;100430.97;;;0.53;60.19
76352;BME280;65179;47.786;19.138;2023-04-06T03:53:52;100433.50;;;0.54;60.20
76352;BME280;65179;47.786;19.138;2023-04-06T03:56:18;100435.62;;;0.51;60.70
76352;BME280;65179;47.786;19.138;2023-04-06T03:58:43;100425.25;;;0.48;61.15
76352;BME280;65179;47.786;19.138;2023-04-06T04:01:10;100423.97;;;0.52;61.08
76352;BME280;65179;47.786;19.138;2023-04-06T04:03:36;100433.34;;;0.56;60.03
76352;BME280;65179;47.786;19.138;2023-04-06T04:06:01;100436.66;;;0.32;60.43
76352;BME280;65179;47.786;19.138;2023-04-06T04:08:27;100437.56;;;0.41;60.04
76352;BME280;65179;47.786;19.138;2023-04-06T04:10:52;100434.50;;;0.36;60.25
76352;BME280;65179;47.786;19.138;2023-04-06T04:13:18;100426.28;;;0.12;60.51
76352;BME280;65179;47.786;19.138;2023-04-06T04:15:43;100433.53;;;0.02;60.85
76352;BME280;65179;47.786;19.138;2023-04-06T04:18:09;100429.56;;;0.06;60.89
76352;BME280;65179;47.786;19.138;2023-04-06T04:20:34;100428.78;;;0.13;61.17
76352;BME280;65179;47.786;19.138;2023-04-06T04:23:00;100424.63;;;0.11;60.60
76352;BME280;65179;47.786;19.138;2023-04-06T04:25:25;100420.88;;;0.04;61.31
76352;BME280;65179;47.786;19.138;2023-04-06T04:27:51;100418.94;;;0.14;61.14
76352;BME280;65179;47.786;19.138;2023-04-06T04:30:16;100414.84;;;0.19;60.90
76352;BME280;65179;47.786;19.138;2023-04-06T04:32:42;100418.78;;;0.33;60.60
76352;BME280;65179;47.786;19.138;2023-04-06T04:35:08;100419.84;;;0.40;60.71
76352;BME280;65179;47.786;19.138;2023-04-06T04:37:33;100413.75;;;0.47;60.43
76352;BME280;65179;47.786;19.138;2023-04-06T04:40:00;100417.63;;;0.53;60.13
76352;BME280;65179;47.786;19.138;2023-04-06T04:42:25;100412.69;;;0.40;59.78
76352;BME280;65179;47.786;19.138;2023-04-06T04:44:51;100418.03;;;0.40;60.08
76352;BME280;65179;47.786;19.138;2023-04-06T04:47:16;100415.88;;;0.44;59.89
76352;BME280;65179;47.786;19.138;2023-04-06T04:49:42;100412.22;;;0.45;59.83
76352;BME280;65179;47.786;19.138;2023-04-06T04:52:07;100407.84;;;0.44;59.87
76352;BME280;65179;47.786;19.138;2023-04-06T04:54:33;100403.41;;;0.52;59.63
76352;BME280;65179;47.786;19.138;2023-04-06T04:56:58;100386.28;;;0.37;59.69
76352;BME280;65179;47.786;19.138;2023-04-06T04:59:24;100409.38;;;0.46;59.60
76352;BME280;65179;47.786;19.138;2023-04-06T05:01:49;100400.41;;;0.47;59.46
76352;BME280;65179;47.786;19.138;2023-04-06T05:04:15;100394.09;;;0.56;59.42
76352;BME280;65179;47.786;19.138;2023-04-06T05:06:40;100401.62;;;0.61;59.26
76352;BME280;65179;47.786;19.138;2023-04-06T05:09:06;100400.66;;;0.62;59.42
76352;BME280;65179;47.786;19.138;2023-04-06T05:11:31;100403.75;;;0.75;59.00
76352;BME280;65179;47.786;19.138;2023-04-06T05:13:56;100399.13;;;0.85;58.80
76352;BME280;65179;47.786;19.138;2023-04-06T05:16:22;100405.72;;;0.91;58.58
76352;BME280;65179;47.786;19.138;2023-04-06T05:18:48;100402.87;;;0.92;58.46
76352;BME280;65179;47.786;19.138;2023-04-06T05:21:14;100396.84;;;0.90;58.79
76352;BME280;65179;47.786;19.138;2023-04-06T05:23:39;100393.91;;;1.01;58.58
76352;BME280;65179;47.786;19.138;2023-04-06T05:26:05;100386.94;;;1.08;58.53
76352;BME280;65179;47.786;19.138;2023-04-06T05:28:30;100383.41;;;1.08;58.47
76352;BME280;65179;47.786;19.138;2023-04-06T05:30:56;100382.87;;;1.04;58.47
76352;BME280;65179;47.786;19.138;2023-04-06T05:33:22;100377.25;;;1.15;58.39
76352;BME280;65179;47.786;19.138;2023-04-06T05:35:48;100373.03;;;1.13;58.58
76352;BME280;65179;47.786;19.138;2023-04-06T05:38:13;100372.56;;;1.17;58.10
76352;BME280;65179;47.786;19.138;2023-04-06T05:40:39;100369.22;;;1.15;58.14
76352;BME280;65179;47.786;19.138;2023-04-06T05:43:06;100378.75;;;1.18;58.37
76352;BME280;65179;47.786;19.138;2023-04-06T05:45:32;100377.31;;;1.23;58.14
76352;BME280;65179;47.786;19.138;2023-04-06T05:47:57;100375.44;;;1.24;58.43
76352;BME280;65179;47.786;19.138;2023-04-06T05:50:22;100367.81;;;1.37;58.04
76352;BME280;65179;47.786;19.138;2023-04-06T05:52:48;100369.03;;;1.50;57.53
76352;BME280;65179;47.786;19.138;2023-04-06T05:55:13;100368.72;;;1.53;57.64
76352;BME280;65179;47.786;19.138;2023-04-06T05:57:39;100367.72;;;1.63;57.41
76352;BME280;65179;47.786;19.138;2023-04-06T06:00:06;100374.59;;;1.65;56.95
76352;BME280;65179;47.786;19.138;2023-04-06T06:02:34;100365.87;;;1.71;56.94
76352;BME280;65179;47.786;19.138;2023-04-06T06:04:59;100360.91;;;1.84;56.74
76352;BME280;65179;47.786;19.138;2023-04-06T06:07:25;100364.78;;;1.90;56.62
76352;BME280;65179;47.786;19.138;2023-04-06T06:09:50;100355.06;;;1.89;56.42
76352;BME280;65179;47.786;19.138;2023-04-06T06:12:16;100350.38;;;1.91;56.50
76352;BME280;65179;47.786;19.138;2023-04-06T06:14:41;100353.56;;;2.02;56.38
76352;BME280;65179;47.786;19.138;2023-04-06T06:17:06;100352.22;;;1.98;55.87
76352;BME280;65179;47.786;19.138;2023-04-06T06:19:32;100343.69;;;1.95;55.58
76352;BME280;65179;47.786;19.138;2023-04-06T06:21:57;100334.81;;;2.10;55.76
76352;BME280;65179;47.786;19.138;2023-04-06T06:24:23;100336.00;;;2.24;55.65
76352;BME280;65179;47.786;19.138;2023-04-06T06:26:49;100346.38;;;2.19;55.65
76352;BME280;65179;47.786;19.138;2023-04-06T06:29:14;100330.62;;;2.24;55.21
76352;BME280;65179;47.786;19.138;2023-04-06T06:31:40;100336.00;;;2.40;54.74
76352;BME280;65179;47.786;19.138;2023-04-06T06:34:05;100324.59;;;2.46;54.38
76352;BME280;65179;47.786;19.138;2023-04-06T06:36:32;100328.09;;;2.55;54.30
76352;BME280;65179;47.786;19.138;2023-04-06T06:38:58;100322.91;;;2.61;54.18
76352;BME280;65179;47.786;19.138;2023-04-06T06:41:24;100323.03;;;2.76;53.68
76352;BME280;65179;47.786;19.138;2023-04-06T06:43:51;100320.38;;;2.68;53.12
76352;BME280;65179;47.786;19.138;2023-04-06T06:46:17;100319.84;;;2.72;52.67
76352;BME280;65179;47.786;19.138;2023-04-06T06:48:42;100323.19;;;2.74;53.00
76352;BME280;65179;47.786;19.138;2023-04-06T06:51:08;100317.84;;;2.74;53.13
76352;BME280;65179;47.786;19.138;2023-04-06T06:53:34;100316.16;;;2.81;52.24
76352;BME280;65179;47.786;19.138;2023-04-06T06:56:00;100313.25;;;2.91;52.00
76352;BME280;65179;47.786;19.138;2023-04-06T06:58:25;100309.28;;;2.79;51.05
76352;BME280;65179;47.786;19.138;2023-04-06T07:00:56;100310.53;;;2.99;51.66
76352;BME280;65179;47.786;19.138;2023-04-06T07:03:22;100311.87;;;3.03;50.86
76352;BME280;65179;47.786;19.138;2023-04-06T07:05:48;100318.19;;;3.18;50.68
76352;BME280;65179;47.786;19.138;2023-04-06T07:08:18;100306.94;;;3.23;50.32
76352;BME280;65179;47.786;19.138;2023-04-06T07:10:43;100308.72;;;3.30;50.11
76352;BME280;65179;47.786;19.138;2023-04-06T07:13:09;100310.19;;;3.41;49.90
76352;BME280;65179;47.786;19.138;2023-04-06T07:15:34;100308.22;;;3.35;49.67
76352;BME280;65179;47.786;19.138;2023-04-06T07:18:00;100306.50;;;3.42;49.04
76352;BME280;65179;47.786;19.138;2023-04-06T07:20:25;100306.62;;;3.48;49.00
76352;BME280;65179;47.786;19.138;2023-04-06T07:22:53;100302.38;;;3.54;49.11
76352;BME280;65179;47.786;19.138;2023-04-06T07:25:18;100304.87;;;3.55;49.07
76352;BME280;65179;47.786;19.138;2023-04-06T07:27:44;100301.41;;;3.77;49.37
76352;BME280;65179;47.786;19.138;2023-04-06T07:30:10;100299.88;;;3.83;48.98
76352;BME280;65179;47.786;19.138;2023-04-06T07:32:35;100297.22;;;3.98;48.45
76352;BME280;65179;47.786;19.138;2023-04-06T07:35:01;100295.50;;;4.05;48.00
76352;BME280;65179;47.786;19.138;2023-04-06T07:37:26;100296.72;;;4.17;47.38
76352;BME280;65179;47.786;19.138;2023-04-06T07:39:52;100302.31;;;4.30;47.12
76352;BME280;65179;47.786;19.138;2023-04-06T07:42:17;100299.75;;;4.36;46.93
76352;BME280;65179;47.786;19.138;2023-04-06T07:44:42;100296.81;;;4.46;46.51
76352;BME280;65179;47.786;19.138;2023-04-06T07:47:08;100290.31;;;4.55;46.39
76352;BME280;65179;47.786;19.138;2023-04-06T07:49:33;100298.91;;;4.50;46.54
76352;BME280;65179;47.786;19.138;2023-04-06T07:51:59;100291.87;;;4.49;46.45
76352;BME280;65179;47.786;19.138;2023-04-06T07:54:24;100295.41;;;4.65;46.26
76352;BME280;65179;47.786;19.138;2023-04-06T07:56:50;100295.22;;;4.51;45.68
76352;BME280;65179;47.786;19.138;2023-04-06T07:59:15;100291.63;;;4.59;45.91
76352;BME280;65179;47.786;19.138;2023-04-06T08:01:40;100288.94;;;4.74;45.12
76352;BME280;65179;47.786;19.138;2023-04-06T08:04:06;100289.22;;;4.93;45.20
76352;BME280;65179;47.786;19.138;2023-04-06T08:06:31;100285.28;;;5.25;44.30
76352;BME280;65179;47.786;19.138;2023-04-06T08:08:57;100282.91;;;5.15;43.04
76352;BME280;65179;47.786;19.138;2023-04-06T08:11:22;100287.59;;;5.28;43.28
76352;BME280;65179;47.786;19.138;2023-04-06T08:13:48;100273.88;;;5.59;42.97
76352;BME280;65179;47.786;19.138;2023-04-06T08:16:13;100273.25;;;5.78;42.28
76352;BME280;65179;47.786;19.138;2023-04-06T08:18:38;100268.31;;;5.81;41.43
76352;BME280;65179;47.786;19.138;2023-04-06T08:21:04;100274.34;;;6.04;41.42
76352;BME280;65179;47.786;19.138;2023-04-06T08:23:29;100270.41;;;6.28;41.46
76352;BME280;65179;47.786;19.138;2023-04-06T08:25:55;100262.12;;;6.02;41.21
76352;BME280;65179;47.786;19.138;2023-04-06T08:28:21;100258.41;;;6.31;41.72
76352;BME280;65179;47.786;19.138;2023-04-06T08:30:46;100265.81;;;6.22;40.69
76352;BME280;65179;47.786;19.138;2023-04-06T08:33:12;100266.25;;;6.26;40.90
76352;BME280;65179;47.786;19.138;2023-04-06T08:35:37;100261.69;;;6.26;39.90
76352;BME280;65179;47.786;19.138;2023-04-06T08:38:02;100261.44;;;6.21;38.62
76352;BME280;65179;47.786;19.138;2023-04-06T08:40:28;100261.59;;;6.41;39.10
76352;BME280;65179;47.786;19.138;2023-04-06T08:42:59;100253.34;;;6.49;39.16
76352;BME280;65179;47.786;19.138;2023-04-06T08:45:27;100250.66;;;6.49;37.95
76352;BME280;65179;47.786;19.138;2023-04-06T08:47:53;100249.38;;;6.45;36.25
76352;BME280;65179;47.786;19.138;2023-04-06T08:50:20;100247.25;;;6.68;37.57
76352;BME280;65179;47.786;19.138;2023-04-06T08:52:49;100256.34;;;6.60;37.40
76352;BME280;65179;47.786;19.138;2023-04-06T08:55:15;100249.94;;;6.68;36.91
76352;BME280;65179;47.786;19.138;2023-04-06T08:57:42;100246.38;;;6.61;37.63
76352;BME280;65179;47.786;19.138;2023-04-06T09:00:09;100249.59;;;6.77;36.52
76352;BME280;65179;47.786;19.138;2023-04-06T09:02:38;100248.00;;;6.89;36.68
76352;BME280;65179;47.786;19.138;2023-04-06T09:05:04;100245.25;;;6.83;37.16
76352;BME280;65179;47.786;19.138;2023-04-06T09:07:30;100245.00;;;6.78;37.03
76352;BME280;65179;47.786;19.138;2023-04-06T09:09:56;100259.03;;;6.95;36.97
76352;BME280;65179;47.786;19.138;2023-04-06T09:12:28;100242.12;;;6.79;36.39
76352;BME280;65179;47.786;19.138;2023-04-06T09:14:54;100251.38;;;6.98;36.85
76352;BME280;65179;47.786;19.138;2023-04-06T09:17:28;100245.72;;;6.93;36.05
76352;BME280;65179;47.786;19.138;2023-04-06T09:19:55;100245.34;;;6.96;36.39
76352;BME280;65179;47.786;19.138;2023-04-06T09:22:21;100243.72;;;7.08;36.42
76352;BME280;65179;47.786;19.138;2023-04-06T09:24:49;100240.69;;;7.24;36.18
76352;BME280;65179;47.786;19.138;2023-04-06T09:27:15;100239.81;;;7.17;35.79
76352;BME280;65179;47.786;19.138;2023-04-06T09:29:41;100238.59;;;7.20;35.73
76352;BME280;65179;47.786;19.138;2023-04-06T09:32:11;100234.94;;;7.40;35.41
76352;BME280;65179;47.786;19.138;2023-04-06T09:34:38;100235.38;;;7.50;35.52
76352;BME280;65179;47.786;19.138;2023-04-06T09:37:16;100237.03;;;7.45;34.64
76352;BME280;65179;47.786;19.138;2023-04-06T09:39:43;100228.06;;;7.38;34.88
76352;BME280;65179;47.786;19.138;2023-04-06T09:42:08;100230.78;;;7.51;35.01
76352;BME280;65179;47.786;19.138;2023-04-06T09:44:34;100229.75;;;7.58;35.08
76352;BME280;65179;47.786;19.138;2023-04-06T09:47:00;100235.00;;;7.67;34.50
76352;BME280;65179;47.786;19.138;2023-04-06T09:49:30;100237.47;;;7.68;34.60
76352;BME280;65179;47.786;19.138;2023-04-06T09:51:59;100229.38;;;7.68;34.01
76352;BME280;65179;47.786;19.138;2023-04-06T09:54:34;100223.75;;;7.70;34.02
76352;BME280;65179;47.786;19.138;2023-04-06T09:57:26;100222.12;;;7.95;33.45
76352;BME280;65179;47.786;19.138;2023-04-06T10:02:33;100232.53;;;8.24;33.90
76352;BME280;65179;47.786;19.138;2023-04-06T10:05:55;100223.41;;;8.38;33.52
76352;BME280;65179;47.786;19.138;2023-04-06T10:07:57;100215.69;;;8.42;32.83
76352;BME280;65179;47.786;19.138;2023-04-06T10:10:23;100215.91;;;8.53;33.21
76352;BME280;65179;47.786;19.138;2023-04-06T10:12:48;100210.47;;;8.53;32.99
76352;BME280;65179;47.786;19.138;2023-04-06T10:15:15;100201.09;;;8.43;32.68
76352;BME280;65179;47.786;19.138;2023-04-06T10:17:41;100203.41;;;8.39;33.06
76352;BME280;65179;47.786;19.138;2023-04-06T10:20:19;100216.94;;;8.39;32.72
76352;BME280;65179;47.786;19.138;2023-04-06T10:25:31;100204.62;;;8.56;32.99
76352;BME280;65179;47.786;19.138;2023-04-06T10:28:18;100198.56;;;8.74;32.53
76352;BME280;65179;47.786;19.138;2023-04-06T10:30:45;100199.63;;;8.60;32.40
76352;BME280;65179;47.786;19.138;2023-04-06T10:35:43;100191.31;;;8.61;31.09
76352;BME280;65179;47.786;19.138;2023-04-06T10:38:09;100191.44;;;8.79;31.64
76352;BME280;65179;47.786;19.138;2023-04-06T10:40:39;100193.50;;;8.84;31.31
76352;BME280;65179;47.786;19.138;2023-04-06T10:43:12;100181.62;;;8.91;30.60
76352;BME280;65179;47.786;19.138;2023-04-06T10:45:41;100190.16;;;8.88;30.29
76352;BME280;65179;47.786;19.138;2023-04-06T10:48:15;100179.28;;;9.01;31.13
76352;BME280;65179;47.786;19.138;2023-04-06T10:50:49;100175.81;;;8.88;30.06
76352;BME280;65179;47.786;19.138;2023-04-06T10:53:22;100184.53;;;8.96;30.07
76352;BME280;65179;47.786;19.138;2023-04-06T10:55:50;100171.63;;;9.30;30.35
76352;BME280;65179;47.786;19.138;2023-04-06T10:58:16;100176.56;;;9.46;30.07
76352;BME280;65179;47.786;19.138;2023-04-06T11:00:48;100176.72;;;9.51;29.24
76352;BME280;65179;47.786;19.138;2023-04-06T11:03:15;100173.19;;;9.50;29.28
76352;BME280;65179;47.786;19.138;2023-04-06T11:05:50;100172.03;;;9.64;29.18
76352;BME280;65179;47.786;19.138;2023-04-06T11:08:32;100165.87;;;9.82;29.19
76352;BME280;65179;47.786;19.138;2023-04-06T11:11:08;100159.50;;;9.70;28.70
76352;BME280;65179;47.786;19.138;2023-04-06T11:16:06;100156.22;;;10.35;28.88
76352;BME280;65179;47.786;19.138;2023-04-06T11:18:31;100156.34;;;10.65;28.29
76352;BME280;65179;47.786;19.138;2023-04-06T11:20:57;100153.22;;;10.98;28.36
76352;BME280;65179;47.786;19.138;2023-04-06T11:23:23;100151.03;;;10.34;26.96
76352;BME280;65179;47.786;19.138;2023-04-06T11:25:55;100148.47;;;9.65;28.06
76352;BME280;65179;47.786;19.138;2023-04-06T11:28:21;100148.44;;;9.96;29.19
76352;BME280;65179;47.786;19.138;2023-04-06T11:30:46;100146.88;;;10.07;28.66
76352;BME280;65179;47.786;19.138;2023-04-06T11:33:20;100147.16;;;10.23;28.91
76352;BME280;65179;47.786;19.138;2023-04-06T11:35:45;100144.88;;;9.71;29.38
76352;BME280;65179;47.786;19.138;2023-04-06T11:38:11;100138.63;;;9.95;28.77
76352;BME280;65179;47.786;19.138;2023-04-06T11:40:36;100138.25;;;9.67;29.51
76352;BME280;65179;47.786;19.138;2023-04-06T11:43:03;100136.22;;;9.87;29.28
76352;BME280;65179;47.786;19.138;2023-04-06T11:45:39;100139.34;;;9.84;29.48
76352;BME280;65179;47.786;19.138;2023-04-06T11:48:04;100135.50;;;9.42;28.20
76352;BME280;65179;47.786;19.138;2023-04-06T11:50:33;100135.00;;;9.52;29.90
76352;BME280;65179;47.786;19.138;2023-04-06T11:53:02;100128.59;;;9.46;29.71
76352;BME280;65179;47.786;19.138;2023-04-06T11:55:28;100129.78;;;9.57;29.55
76352;BME280;65179;47.786;19.138;2023-04-06T11:57:57;100133.41;;;9.69;29.13
76352;BME280;65179;47.786;19.138;2023-04-06T12:00:22;100121.44;;;9.83;28.92
76352;BME280;65179;47.786;19.138;2023-04-06T12:02:48;100119.47;;;9.90;29.17
76352;BME280;65179;47.786;19.138;2023-04-06T12:05:17;100128.87;;;9.87;28.64
76352;BME280;65179;47.786;19.138;2023-04-06T12:07:42;100118.16;;;9.99;28.82
76352;BME280;65179;47.786;19.138;2023-04-06T12:10:08;100114.91;;;10.15;29.00
76352;BME280;65179;47.786;19.138;2023-04-06T12:12:33;100123.44;;;9.87;27.84
76352;BME280;65179;47.786;19.138;2023-04-06T12:14:59;100129.41;;;9.78;28.56
76352;BME280;65179;47.786;19.138;2023-04-06T12:17:25;100119.31;;;9.85;28.58
76352;BME280;65179;47.786;19.138;2023-04-06T12:19:51;100116.31;;;9.93;28.22
76352;BME280;65179;47.786;19.138;2023-04-06T12:22:17;100112.31;;;10.20;27.84
76352;BME280;65179;47.786;19.138;2023-04-06T12:24:43;100112.84;;;10.11;28.08
76352;BME280;65179;47.786;19.138;2023-04-06T12:27:08;100113.25;;;9.34;28.96
76352;BME280;65179;47.786;19.138;2023-04-06T12:29:36;100107.97;;;9.70;28.92
76352;BME280;65179;47.786;19.138;2023-04-06T12:32:01;100106.38;;;9.87;28.84
76352;BME280;65179;47.786;19.138;2023-04-06T12:34:27;100105.34;;;10.06;28.97
76352;BME280;65179;47.786;19.138;2023-04-06T12:36:52;100105.41;;;10.00;28.37
76352;BME280;65179;47.786;19.138;2023-04-06T12:39:18;100107.12;;;9.94;28.66
76352;BME280;65179;47.786;19.138;2023-04-06T12:41:44;100095.84;;;9.97;28.63
76352;BME280;65179;47.786;19.138;2023-04-06T12:44:09;100102.41;;;9.89;28.70
76352;BME280;65179;47.786;19.138;2023-04-06T12:46:35;100102.28;;;9.78;29.04
76352;BME280;65179;47.786;19.138;2023-04-06T12:49:01;100102.56;;;9.70;29.77
76352;BME280;65179;47.786;19.138;2023-04-06T12:51:28;100109.03;;;9.69;29.89
76352;BME280;65179;47.786;19.138;2023-04-06T12:53:54;100095.16;;;9.59;29.72
76352;BME280;65179;47.786;19.138;2023-04-06T12:56:19;100099.91;;;9.63;29.88